CheckWX is a tool to help pilots better visualize weather data.  It is not intended as a substitute for an official pre-flight weather briefing.

14:15:22 UTC

82C METAR
Mauston-New Lisbon Union Airport
New Lisbon, Wisconsin, USA
Current

20 mins ago

K82C 151355Z AUTO 23004KT 10SM SCT013 OVC032 21/18 A2999 RMK AO2 T02060183
Observed
Sep-15 @ 13:55 UTC
Wind
  • 230° at 4 KTS
Visibility
10 SM
Flight Rules
VFR
Cloud Levels
  • Scattered at 1,300' AGL
  • Overcast at 3,200' AGL
Temperature
21°C / 70°F
Dewpoint
18°C / 64°F
Humidity
83%
Altimeter
29.99" Hg
Pressure
1015.62 hPa
Previous

40 mins ago

K82C 151335Z AUTO 16003KT 7SM OVC035 20/18 A2999 RMK AO2 T01980182
Observed
Sep-15 @ 13:35 UTC
Wind
  • 160° at 3 KTS
Visibility
7 SM
Flight Rules
VFR
Cloud Levels
  • Overcast at 3,500' AGL
Temperature
20°C / 68°F
Dewpoint
18°C / 64°F
Humidity
88%
Altimeter
29.99" Hg
Pressure
1015.62 hPa
Previous

60 mins ago

K82C 151315Z AUTO 15004KT 10SM OVC035 19/18 A2999 RMK AO2 T01920181
Observed
Sep-15 @ 13:15 UTC
Wind
  • 150° at 4 KTS
Visibility
10 SM
Flight Rules
VFR
Cloud Levels
  • Overcast at 3,500' AGL
Temperature
19°C / 66°F
Dewpoint
18°C / 64°F
Humidity
94%
Altimeter
29.99" Hg
Pressure
1015.62 hPa